Osan Air Base
RKSO : now visible

Airfield :











YOU CAN JOIN US ON...

 
LOGIN :

Register | Disclaimer

   EN    FR    IT 

 









Legend :    VFR   Marginal VFR   IFR   Intensive IFR   Very Intensive IFR
Visi :
Ceiling :
>= 8 km
>= 3000ft
5 to 8 km
1000 to 3000 ft
1500m to 5 km
500 to 1000 ft
800 to 1500m
200 to 500 ft
< 800m
< 200 ft
Symbols :   Thunderstorms  Fog  Heavy snow  Heavy precipitations  Wind > 20 kt







- Airport Elevation : 38 ft
- IATA code : OSN


RKSO - Osan Air Base

CURRENT METAR :
  • 160858Z 29010KT 7SM FEW035 M01/M09 A3023 RMK AO2A SLP241 T10121092 55000 $

EXPIRED METARs :
  • 160758Z 31008KT 7SM FEW035 00/M11 A3023 RMK AO2A SLP241 T00041109 $
  • 160658Z 29009KT 7SM FEW035 01/M09 A3023 RMK AO2A SLP241 T00081090 $

TAF TAF RKSO
Valid from the 16 at 03:00 until the 17 at 09:00 UTC


160300Z 1603/1709 29010G15KT 9999 FEW020 QNH3025INS
BECMG 1609/1610 VRB06KT 9999 SKC QNH3030INS TX02/1703Z TNM05/1621Z
RKRR FIR / Asia



MET'MAP, your aeronautical weather chart ! - Copyright ORBIFLY December 2007 - Disclaimer

ORBIFLY MET'MAP TEAM :

Programming & Development : Alexandra Zaïnal
Concept & Development : Baudouin d'Aumeries
Co-Development & Prog : Marc-Olivier Méhu
Technical & hardware support : Manuel Goepfert

Contact : metmap@orbifly.com




SOURCES & CREDITS :

   NOAA       Earth
Advisory